Time;durP1;ratioP1;P1;durP2;ratioP2;P2;SDS_P1;SDS_P2;PMS_P1;PMS_P2;Temp;Humidity;BMP_temperature;BMP_pressure;BME280_temperature;BME280_humidity;BME280_pressure;Samples;Min_cycle;Max_cycle;Signal;HPM_P1;HPM_P2
2023/12/13 00:02:06;;;;;;;4.23;1.10;;;10.70;40.50;;;;;;5007199;28;20503;-65
2023/12/13 00:04:33;;;;;;;3.40;1.00;;;10.70;39.90;;;;;;5007616;28;20466;-65
2023/12/13 00:07:00;;;;;;;2.90;0.70;;;10.60;39.10;;;;;;5009042;28;20930;-66
2023/12/13 00:09:27;;;;;;;3.23;0.67;;;10.60;39.00;;;;;;5008439;28;20466;-65
2023/12/13 00:11:54;;;;;;;3.30;0.63;;;10.50;38.80;;;;;;5006348;28;20546;-65
2023/12/13 00:14:22;;;;;;;3.20;0.60;;;10.50;38.70;;;;;;5010909;28;20853;-65
2023/12/13 00:16:50;;;;;;;3.40;0.80;;;10.50;38.40;;;;;;5011736;28;20487;-66
2023/12/13 00:19:17;;;;;;;3.90;0.90;;;10.40;38.40;;;;;;5007782;28;20500;-65
2023/12/13 00:21:44;;;;;;;2.90;0.40;;;10.40;38.20;;;;;;5007127;28;20576;-65
2023/12/13 00:24:12;;;;;;;3.00;0.50;;;10.30;38.30;;;;;;5008839;28;20459;-65
2023/12/13 00:26:39;;;;;;;3.10;0.60;;;10.30;38.50;;;;;;5002058;28;20468;-65
2023/12/13 00:29:06;;;;;;;2.80;0.40;;;10.20;38.40;;;;;;5009913;28;20467;-65
2023/12/13 00:31:35;;;;;;;3.00;0.60;;;10.20;39.10;;;;;;5008194;28;20476;-65
2023/12/13 00:34:01;;;;;;;5.93;0.93;;;10.20;38.60;;;;;;5005857;28;20494;-65
2023/12/13 00:36:28;;;;;;;3.63;1.07;;;10.20;38.70;;;;;;5010880;28;20860;-65
2023/12/13 00:38:55;;;;;;;4.37;1.10;;;10.10;38.70;;;;;;5009938;28;20543;-65
2023/12/13 00:41:24;;;;;;;4.13;1.30;;;10.10;38.70;;;;;;5005196;28;20518;-65
2023/12/13 00:43:51;;;;;;;5.40;2.40;;;10.10;38.60;;;;;;5009163;28;20455;-65
2023/12/13 00:46:19;;;;;;;5.67;1.93;;;10.10;38.40;;;;;;5006467;28;20490;-65
2023/12/13 00:48:48;;;;;;;4.83;1.70;;;10.10;38.10;;;;;;5005329;28;20486;-65
2023/12/13 00:51:18;;;;;;;3.50;0.77;;;10.10;37.70;;;;;;5009573;28;20463;-65
2023/12/13 00:53:45;;;;;;;3.40;1.20;;;10.10;37.40;;;;;;5006238;28;20464;-65
2023/12/13 00:56:12;;;;;;;3.53;0.70;;;10.10;37.40;;;;;;5007048;28;20456;-65
2023/12/13 00:58:39;;;;;;;3.43;0.80;;;10.10;37.50;;;;;;5006342;28;20488;-65
2023/12/13 01:01:06;;;;;;;5.87;0.60;;;10.10;37.50;;;;;;5013767;28;20482;-65
2023/12/13 01:03:33;;;;;;;5.10;0.80;;;10.00;37.50;;;;;;5006642;28;20463;-65
2023/12/13 01:06:01;;;;;;;2.90;0.50;;;10.10;37.50;;;;;;5007584;28;21221;-65
2023/12/13 01:08:28;;;;;;;3.37;0.60;;;10.10;37.30;;;;;;5007063;28;20463;-65
2023/12/13 01:10:55;;;;;;;3.00;0.60;;;10.10;37.00;;;;;;5011144;28;20464;-65
2023/12/13 01:13:22;;;;;;;4.43;0.90;;;10.10;36.50;;;;;;5005829;28;20487;-65
2023/12/13 01:15:49;;;;;;;3.10;0.80;;;10.00;36.20;;;;;;5005501;28;20463;-65
2023/12/13 01:18:16;;;;;;;3.60;0.53;;;10.10;36.40;;;;;;5013914;28;20566;-65
2023/12/13 01:20:42;;;;;;;2.90;0.57;;;10.00;36.50;;;;;;5003887;28;20543;-65
2023/12/13 01:23:11;;;;;;;4.43;1.20;;;10.00;36.60;;;;;;5004027;28;20986;-65
2023/12/13 01:25:37;;;;;;;3.10;0.50;;;10.00;36.80;;;;;;5011792;28;20498;-66
2023/12/13 01:28:04;;;;;;;3.17;0.43;;;10.00;37.30;;;;;;5006954;28;20952;-65
2023/12/13 01:30:31;;;;;;;3.23;0.53;;;10.00;36.70;;;;;;5007773;28;20463;-65
2023/12/13 01:32:58;;;;;;;3.47;0.80;;;10.00;36.60;;;;;;5008408;28;20482;-65
2023/12/13 01:35:25;;;;;;;5.03;0.77;;;10.00;36.60;;;;;;5009824;28;20478;-65
2023/12/13 01:37:52;;;;;;;3.10;0.60;;;10.00;36.50;;;;;;5010509;28;20480;-65
2023/12/13 01:40:20;;;;;;;3.73;0.77;;;10.00;36.40;;;;;;5007029;28;20467;-65
2023/12/13 01:42:47;;;;;;;3.73;0.40;;;9.90;36.80;;;;;;5013150;28;20488;-65
2023/12/13 01:45:14;;;;;;;3.63;0.50;;;9.90;36.20;;;;;;5009707;28;20540;-65
2023/12/13 01:47:42;;;;;;;4.10;0.60;;;9.90;35.80;;;;;;5007122;28;20456;-65
2023/12/13 01:50:10;;;;;;;4.23;0.50;;;9.90;36.00;;;;;;5010620;28;20478;-65
2023/12/13 01:52:37;;;;;;;5.17;0.67;;;9.80;35.80;;;;;;5006078;28;20498;-65
2023/12/13 01:55:05;;;;;;;4.30;0.50;;;9.80;35.70;;;;;;5010293;28;20464;-65
2023/12/13 01:57:34;;;;;;;3.30;0.50;;;9.80;35.70;;;;;;5008963;28;20479;-65
2023/12/13 02:00:01;;;;;;;5.03;0.67;;;9.80;35.80;;;;;;5007494;28;20462;-65
2023/12/13 02:02:28;;;;;;;6.50;0.90;;;9.80;35.90;;;;;;5005743;28;21305;-67
2023/12/13 02:04:55;;;;;;;4.90;0.70;;;9.70;35.90;;;;;;5007401;28;21178;-65
2023/12/13 02:07:23;;;;;;;4.60;0.60;;;9.70;35.90;;;;;;5009797;28;20456;-65
2023/12/13 02:09:50;;;;;;;3.47;0.90;;;9.70;36.10;;;;;;5009220;28;20470;-65
2023/12/13 02:12:17;;;;;;;3.83;0.90;;;9.70;36.20;;;;;;5004427;28;20487;-65
2023/12/13 02:14:45;;;;;;;3.10;0.50;;;9.60;36.20;;;;;;5009420;28;20482;-65
2023/12/13 02:17:13;;;;;;;3.30;0.60;;;9.60;36.30;;;;;;5011492;28;20460;-66
2023/12/13 02:19:40;;;;;;;3.43;0.60;;;9.60;36.20;;;;;;5004425;28;20785;-65
2023/12/13 02:22:09;;;;;;;3.87;0.80;;;9.50;36.90;;;;;;5008631;28;20518;-65
2023/12/13 02:24:40;;;;;;;3.23;0.60;;;9.50;36.40;;;;;;5013203;28;20474;-66
2023/12/13 02:27:07;;;;;;;3.57;0.50;;;9.40;36.20;;;;;;5007356;28;20468;-65
2023/12/13 02:29:35;;;;;;;4.13;0.83;;;9.30;36.90;;;;;;5013437;28;20460;-65
2023/12/13 02:32:02;;;;;;;3.90;0.50;;;9.30;36.50;;;;;;5012121;28;20514;-65
2023/12/13 02:34:28;;;;;;;3.30;0.80;;;9.20;37.10;;;;;;5004838;28;20478;-65
2023/12/13 02:36:55;;;;;;;4.60;0.70;;;9.20;36.50;;;;;;5008667;28;20470;-65
2023/12/13 02:39:23;;;;;;;4.40;0.60;;;9.10;36.60;;;;;;5008884;28;21344;-65
2023/12/13 02:41:50;;;;;;;4.67;0.60;;;9.10;36.70;;;;;;5009942;28;20483;-65
2023/12/13 02:44:17;;;;;;;5.10;0.40;;;9.10;37.30;;;;;;5010009;28;20456;-66
2023/12/13 02:46:44;;;;;;;4.30;0.60;;;9.10;36.80;;;;;;5009839;28;20464;-66
2023/12/13 02:49:10;;;;;;;3.93;0.67;;;9.10;36.80;;;;;;5007679;28;20460;-65
2023/12/13 02:51:37;;;;;;;3.37;0.60;;;9.10;36.80;;;;;;5007630;28;20490;-65
2023/12/13 02:54:05;;;;;;;3.63;0.57;;;9.10;36.90;;;;;;5011438;28;20463;-65
2023/12/13 02:56:33;;;;;;;3.50;0.60;;;9.10;36.80;;;;;;5017309;28;20456;-64
2023/12/13 02:59:00;;;;;;;4.80;1.90;;;9.20;37.50;;;;;;5010870;28;20482;-66
2023/12/13 03:01:27;;;;;;;3.00;0.60;;;9.20;36.90;;;;;;5013857;28;20498;-65
2023/12/13 03:03:54;;;;;;;3.20;0.50;;;9.20;36.90;;;;;;5006794;28;20471;-66
2023/12/13 03:06:21;;;;;;;4.10;0.60;;;9.20;36.90;;;;;;5006367;28;20951;-66
2023/12/13 03:08:48;;;;;;;4.77;0.63;;;9.20;37.40;;;;;;5015435;28;20870;-65
2023/12/13 03:11:15;;;;;;;3.73;0.60;;;9.20;36.80;;;;;;5011668;28;20616;-65
2023/12/13 03:13:43;;;;;;;4.03;0.73;;;9.20;36.80;;;;;;5004293;28;20468;-66
2023/12/13 03:16:10;;;;;;;3.80;0.63;;;9.20;37.50;;;;;;5012922;28;20588;-66
2023/12/13 03:18:37;;;;;;;4.90;1.43;;;9.20;37.00;;;;;;5011819;28;20488;-65
2023/12/13 03:21:04;;;;;;;3.03;0.43;;;9.20;37.00;;;;;;5007994;28;20823;-66
2023/12/13 03:23:30;;;;;;;4.03;0.60;;;9.20;37.00;;;;;;5006551;28;20474;-65
2023/12/13 03:25:57;;;;;;;3.90;0.50;;;9.30;37.80;;;;;;5012598;28;21133;-66
2023/12/13 03:28:24;;;;;;;5.00;0.60;;;9.30;37.10;;;;;;5013264;28;20466;-65
2023/12/13 03:30:52;;;;;;;3.20;0.60;;;9.30;37.00;;;;;;5004769;28;20476;-65
2023/12/13 03:33:19;;;;;;;3.00;0.50;;;9.30;37.00;;;;;;5006715;28;20542;-65
2023/12/13 03:35:46;;;;;;;4.50;0.60;;;9.20;37.10;;;;;;5013431;28;20468;-64
2023/12/13 03:38:13;;;;;;;4.33;0.73;;;9.10;37.70;;;;;;5009250;28;20488;-67
2023/12/13 03:40:40;;;;;;;3.20;0.50;;;9.10;37.50;;;;;;5009962;28;20464;-66
2023/12/13 03:43:07;;;;;;;4.60;0.50;;;9.10;37.20;;;;;;5005380;28;20526;-65
2023/12/13 03:45:34;;;;;;;3.20;0.40;;;9.00;37.80;;;;;;5008749;28;20468;-65
2023/12/13 03:48:02;;;;;;;4.07;0.60;;;9.00;37.50;;;;;;5011729;28;20981;-65
2023/12/13 03:50:29;;;;;;;3.90;0.50;;;8.90;37.50;;;;;;5013453;28;20464;-65
2023/12/13 03:52:55;;;;;;;3.87;0.50;;;8.90;37.70;;;;;;5006721;28;20488;-65
2023/12/13 03:55:22;;;;;;;3.80;0.60;;;8.90;38.30;;;;;;5007093;28;20464;-65
2023/12/13 03:57:49;;;;;;;5.90;0.50;;;8.90;37.90;;;;;;5013968;28;20468;-65
2023/12/13 04:00:16;;;;;;;3.27;0.40;;;8.90;38.60;;;;;;5007410;28;21074;-65
2023/12/13 04:02:43;;;;;;;4.33;0.60;;;8.90;38.10;;;;;;5006458;28;21029;-65
2023/12/13 04:05:11;;;;;;;2.83;0.40;;;8.90;38.20;;;;;;5011274;28;20463;-65
2023/12/13 04:07:38;;;;;;;3.27;0.60;;;8.90;38.20;;;;;;5008173;28;20468;-65
2023/12/13 04:10:06;;;;;;;3.93;0.80;;;8.90;38.30;;;;;;5010344;28;20932;-67
2023/12/13 04:12:35;;;;;;;2.90;0.57;;;8.90;38.40;;;;;;5003862;28;20490;-65
2023/12/13 04:15:02;;;;;;;3.00;0.70;;;8.90;38.50;;;;;;5052938;23;20913;-67
2023/12/13 04:17:29;;;;;;;3.40;0.73;;;8.90;38.50;;;;;;5044485;28;20545;-67
2023/12/13 04:19:57;;;;;;;6.30;0.87;;;9.00;38.50;;;;;;5045791;28;20613;-68
2023/12/13 04:22:25;;;;;;;3.10;0.63;;;9.00;38.50;;;;;;5038830;28;20485;-67
2023/12/13 04:24:52;;;;;;;3.93;0.90;;;9.00;38.50;;;;;;5046906;28;20464;-68
2023/12/13 04:27:19;;;;;;;5.40;0.90;;;9.00;39.10;;;;;;5043551;28;20767;-66
2023/12/13 04:29:46;;;;;;;4.30;1.00;;;9.10;38.60;;;;;;5045607;28;20552;-67
2023/12/13 04:32:13;;;;;;;4.20;1.03;;;9.10;38.70;;;;;;5044935;28;20484;-66
2023/12/13 04:34:39;;;;;;;4.77;1.07;;;9.10;38.80;;;;;;5047124;28;20557;-66
2023/12/13 04:37:06;;;;;;;4.63;1.10;;;9.10;38.80;;;;;;5045176;28;20503;-66
2023/12/13 04:39:35;;;;;;;8.90;1.40;;;9.20;38.70;;;;;;5044106;28;20506;-66
2023/12/13 04:42:03;;;;;;;6.73;1.37;;;9.20;38.70;;;;;;5045678;28;20552;-66
2023/12/13 04:44:30;;;;;;;4.90;0.90;;;9.20;38.80;;;;;;5056922;28;20522;-66
2023/12/13 04:46:57;;;;;;;3.73;1.00;;;9.20;38.70;;;;;;5071625;28;20502;-66
2023/12/13 04:49:24;;;;;;;5.43;1.47;;;9.20;38.80;;;;;;5053835;28;20538;-66
2023/12/13 04:51:51;;;;;;;4.67;1.30;;;9.20;38.90;;;;;;5047861;28;20564;-66
2023/12/13 04:54:19;;;;;;;8.30;1.90;;;9.20;38.90;;;;;;5045261;28;20550;-67
2023/12/13 04:56:47;;;;;;;4.17;1.40;;;9.20;38.80;;;;;;5039863;28;20462;-67
2023/12/13 04:59:14;;;;;;;5.13;2.30;;;9.30;38.90;;;;;;5048817;28;20488;-66
2023/12/13 05:01:41;;;;;;;6.10;1.40;;;9.30;38.90;;;;;;5046984;28;20504;-67
2023/12/13 05:04:07;;;;;;;4.43;1.30;;;9.30;38.80;;;;;;5051461;28;20515;-66
2023/12/13 05:06:34;;;;;;;6.10;1.63;;;9.30;38.80;;;;;;5049638;28;20540;-66
2023/12/13 05:09:01;;;;;;;7.47;1.80;;;9.30;38.80;;;;;;5050854;28;20553;-66
2023/12/13 05:11:28;;;;;;;4.80;1.50;;;9.40;38.70;;;;;;5050891;28;20561;-66
2023/12/13 05:13:56;;;;;;;4.37;1.60;;;9.40;38.60;;;;;;5050656;28;20961;-66
2023/12/13 05:16:23;;;;;;;4.30;1.53;;;9.40;38.60;;;;;;5051258;28;20460;-66
2023/12/13 05:18:50;;;;;;;4.80;1.70;;;9.30;38.60;;;;;;5049410;28;20487;-67
2023/12/13 05:21:17;;;;;;;3.90;1.70;;;9.40;38.50;;;;;;5047617;28;20541;-67
2023/12/13 05:23:44;;;;;;;4.63;1.60;;;9.30;38.60;;;;;;5048155;28;20462;-67
2023/12/13 05:26:11;;;;;;;4.20;1.70;;;9.30;38.70;;;;;;5051165;28;20461;-66
2023/12/13 05:28:37;;;;;;;4.77;1.57;;;9.30;38.50;;;;;;5045258;28;20464;-66
2023/12/13 05:31:06;;;;;;;4.60;1.33;;;9.30;38.40;;;;;;5051567;28;20468;-66
2023/12/13 05:33:33;;;;;;;5.53;1.47;;;9.30;38.50;;;;;;5047873;28;20481;-67
2023/12/13 05:36:00;;;;;;;5.93;1.77;;;9.30;38.40;;;;;;5047010;28;20537;-66
2023/12/13 05:38:27;;;;;;;5.07;1.87;;;9.30;38.40;;;;;;5048942;28;20481;-66
2023/12/13 05:40:54;;;;;;;5.30;2.43;;;9.20;38.40;;;;;;5049919;28;20488;-67
2023/12/13 05:43:21;;;;;;;6.40;1.43;;;9.10;39.20;;;;;;5048693;28;20477;-67
2023/12/13 05:45:47;;;;;;;4.77;1.70;;;9.10;38.90;;;;;;5045003;28;21029;-66
2023/12/13 05:48:16;;;;;;;4.40;1.70;;;9.10;38.80;;;;;;5051133;28;20543;-67
2023/12/13 05:50:42;;;;;;;4.67;2.10;;;9.10;38.90;;;;;;5049726;28;20954;-67
2023/12/13 05:53:09;;;;;;;5.53;1.70;;;9.00;39.00;;;;;;5050471;28;20484;-68
2023/12/13 05:55:36;;;;;;;4.33;1.87;;;9.00;39.30;;;;;;5050282;28;20577;-68
2023/12/13 05:58:03;;;;;;;4.70;1.60;;;8.90;39.40;;;;;;5046393;28;20469;-68
2023/12/13 06:00:30;;;;;;;4.90;1.70;;;8.90;39.60;;;;;;5050851;28;20577;-68
2023/12/13 06:02:57;;;;;;;5.73;1.73;;;8.90;39.80;;;;;;5050964;28;20539;-66
2023/12/13 06:05:25;;;;;;;4.73;2.10;;;8.90;40.60;;;;;;5050887;28;20458;-67
2023/12/13 06:07:52;;;;;;;4.17;1.50;;;8.80;39.90;;;;;;5051364;28;20454;-66
2023/12/13 06:10:19;;;;;;;5.43;1.47;;;8.80;40.00;;;;;;5051630;28;20454;-66
2023/12/13 06:12:46;;;;;;;10.80;3.00;;;8.80;39.90;;;;;;5049682;28;20484;-66
2023/12/13 06:15:13;;;;;;;4.93;1.97;;;8.80;40.10;;;;;;5047153;28;20457;-67
2023/12/13 06:17:40;;;;;;;5.17;1.70;;;8.70;40.30;;;;;;5048391;28;20453;-66
2023/12/13 06:20:09;;;;;;;4.63;2.03;;;8.70;40.50;;;;;;5051597;28;20482;-67
2023/12/13 06:22:37;;;;;;;4.50;1.97;;;8.70;40.40;;;;;;5051628;28;20962;-67
2023/12/13 06:25:04;;;;;;;10.10;4.97;;;8.70;40.30;;;;;;5050685;28;20512;-67
2023/12/13 06:27:31;;;;;;;9.90;5.27;;;8.60;40.40;;;;;;5048186;28;20556;-67
2023/12/13 06:29:58;;;;;;;8.33;3.60;;;8.60;40.50;;;;;;5049452;28;20450;-67
2023/12/13 06:32:25;;;;;;;11.43;2.90;;;8.60;40.80;;;;;;5047036;28;20466;-66
2023/12/13 06:34:52;;;;;;;6.77;3.03;;;8.60;40.90;;;;;;5044232;28;20564;-66
2023/12/13 06:37:19;;;;;;;4.97;2.57;;;8.60;41.00;;;;;;5051210;28;20945;-67
2023/12/13 06:39:49;;;;;;;5.47;2.73;;;8.60;41.10;;;;;;5049670;28;20478;-68
2023/12/13 06:42:16;;;;;;;8.30;2.73;;;8.60;41.10;;;;;;5050037;28;20478;-67
2023/12/13 06:44:43;;;;;;;7.83;2.27;;;8.60;41.10;;;;;;5050044;28;20469;-67
2023/12/13 06:47:09;;;;;;;7.40;3.13;;;8.60;41.10;;;;;;5050087;28;20505;-67
2023/12/13 06:49:36;;;;;;;7.00;3.80;;;8.70;40.90;;;;;;5050457;28;20450;-67
2023/12/13 06:52:03;;;;;;;6.40;3.60;;;8.70;40.80;;;;;;5046592;28;20470;-67
2023/12/13 06:54:30;;;;;;;8.30;4.50;;;8.70;40.80;;;;;;5050237;28;20457;-67
2023/12/13 06:56:59;;;;;;;6.57;3.70;;;8.70;40.70;;;;;;5048392;28;20549;-68
2023/12/13 06:59:26;;;;;;;6.13;2.90;;;8.70;40.70;;;;;;5050574;28;20486;-67
2023/12/13 07:01:53;;;;;;;5.13;2.60;;;8.70;40.50;;;;;;5048489;28;20552;-67
2023/12/13 07:04:20;;;;;;;7.20;2.93;;;8.70;40.70;;;;;;5050389;28;20926;-66
2023/12/13 07:06:47;;;;;;;6.40;2.70;;;8.70;41.50;;;;;;5047432;28;20491;-66
2023/12/13 07:09:18;;;;;;;6.73;2.80;;;8.70;40.70;;;;;;5047131;28;20544;-67
2023/12/13 07:11:46;;;;;;;4.47;2.30;;;8.80;40.70;;;;;;5046256;28;20847;-67
2023/12/13 07:14:14;;;;;;;4.47;2.33;;;8.80;40.70;;;;;;5050398;28;20466;-67
2023/12/13 07:16:41;;;;;;;4.47;2.10;;;8.80;40.60;;;;;;5047949;28;20458;-68
2023/12/13 07:19:08;;;;;;;5.87;2.43;;;8.90;40.80;;;;;;5046827;28;20571;-67
2023/12/13 07:21:35;;;;;;;5.93;2.40;;;8.90;40.60;;;;;;5048532;28;20560;-68
2023/12/13 07:24:03;;;;;;;4.57;2.30;;;8.80;40.70;;;;;;5044193;28;20905;-68
2023/12/13 07:26:30;;;;;;;4.83;2.63;;;8.90;40.80;;;;;;5049706;28;20460;-68
2023/12/13 07:28:57;;;;;;;8.67;4.10;;;8.90;41.00;;;;;;5048724;28;20545;-67
2023/12/13 07:31:25;;;;;;;9.30;4.10;;;8.90;40.10;;;;;;5049417;28;20467;-67
2023/12/13 07:33:52;;;;;;;12.70;6.03;;;8.90;40.30;;;;;;5050071;28;20466;-67
2023/12/13 07:36:18;;;;;;;13.93;8.23;;;9.00;40.00;;;;;;5048710;28;20458;-67
2023/12/13 07:38:45;;;;;;;15.47;7.33;;;9.00;39.90;;;;;;5058629;28;20466;-69
2023/12/13 07:41:13;;;;;;;22.87;12.93;;;8.90;39.80;;;;;;5070192;28;20450;-68
2023/12/13 07:43:40;;;;;;;12.80;6.90;;;8.90;39.80;;;;;;5058768;28;20545;-67
2023/12/13 07:46:08;;;;;;;8.87;4.60;;;8.90;39.90;;;;;;5046313;28;20458;-68
2023/12/13 07:48:37;;;;;;;6.83;3.80;;;9.00;40.30;;;;;;5049006;28;20454;-67
2023/12/13 07:51:04;;;;;;;4.87;2.57;;;9.00;39.70;;;;;;5045796;28;20454;-67
2023/12/13 07:53:31;;;;;;;7.90;3.60;;;9.00;39.50;;;;;;5049846;28;20536;-68
2023/12/13 07:55:57;;;;;;;6.00;3.50;;;9.00;39.70;;;;;;5049170;28;20548;-67
2023/12/13 07:58:24;;;;;;;6.33;3.60;;;9.00;39.60;;;;;;5047854;28;20990;-67
2023/12/13 08:00:51;;;;;;;5.00;2.63;;;9.00;39.50;;;;;;5048399;28;21083;-68
2023/12/13 08:03:18;;;;;;;7.03;2.63;;;9.00;39.60;;;;;;5048860;28;20569;-68
2023/12/13 08:05:46;;;;;;;7.23;2.37;;;9.10;39.60;;;;;;5048613;28;20553;-68
2023/12/13 08:08:15;;;;;;;6.70;3.10;;;9.10;39.60;;;;;;5049161;28;20446;-68
2023/12/13 08:10:43;;;;;;;6.43;2.23;;;9.10;39.40;;;;;;5048385;28;20533;-67
2023/12/13 08:13:10;;;;;;;7.97;2.70;;;9.10;39.80;;;;;;5045441;28;20851;-67
2023/12/13 08:15:37;;;;;;;4.50;1.90;;;9.10;39.10;;;;;;5049013;28;20556;-68
2023/12/13 08:18:04;;;;;;;5.13;2.40;;;9.10;39.20;;;;;;5045472;28;20499;-68
2023/12/13 08:20:30;;;;;;;5.80;2.27;;;9.10;39.30;;;;;;5048942;28;20564;-68
2023/12/13 08:23:03;;;;;;;4.20;1.67;;;9.20;39.20;;;;;;5043587;28;20568;-66
2023/12/13 08:25:30;;;;;;;5.97;1.87;;;9.20;39.10;;;;;;5049323;28;20458;-67
2023/12/13 08:27:57;;;;;;;4.43;1.70;;;9.30;39.20;;;;;;5048871;28;20992;-66
2023/12/13 08:30:24;;;;;;;4.20;1.70;;;9.40;38.90;;;;;;5048338;28;20486;-66
2023/12/13 08:32:51;;;;;;;3.73;1.63;;;9.50;38.70;;;;;;5041395;28;21217;-66
2023/12/13 08:35:18;;;;;;;4.53;1.53;;;9.60;38.50;;;;;;5048930;28;20549;-67
2023/12/13 08:37:45;;;;;;;3.80;1.40;;;9.60;38.30;;;;;;5048666;28;20454;-67
2023/12/13 08:40:13;;;;;;;5.90;1.50;;;9.70;38.40;;;;;;5048137;28;20478;-67
2023/12/13 08:42:40;;;;;;;5.17;1.60;;;9.80;38.40;;;;;;5047906;28;21303;-66
2023/12/13 08:45:10;;;;;;;3.50;1.10;;;9.80;38.20;;;;;;5048848;28;20462;-67
2023/12/13 08:47:37;;;;;;;4.33;1.30;;;10.00;38.00;;;;;;5047909;28;20460;-67
2023/12/13 08:50:04;;;;;;;4.50;1.17;;;10.30;37.70;;;;;;5044674;28;20477;-66
2023/12/13 08:52:31;;;;;;;3.13;1.03;;;10.40;37.30;;;;;;5040601;28;20567;-67
2023/12/13 08:54:58;;;;;;;3.10;0.70;;;10.60;36.60;;;;;;5048247;28;20515;-67
2023/12/13 08:57:26;;;;;;;3.27;0.80;;;10.60;36.00;;;;;;5046909;28;20549;-68
2023/12/13 08:59:53;;;;;;;4.60;1.47;;;10.60;35.50;;;;;;5046846;28;20482;-67
2023/12/13 09:02:20;;;;;;;3.93;1.13;;;10.70;35.00;;;;;;5045098;28;20488;-67
2023/12/13 09:04:47;;;;;;;3.17;0.80;;;10.70;35.00;;;;;;5047639;28;20496;-67
2023/12/13 09:07:14;;;;;;;3.30;0.90;;;10.70;34.90;;;;;;5047744;28;20546;-67
2023/12/13 09:09:40;;;;;;;3.50;0.87;;;10.70;35.00;;;;;;5047187;28;20537;-67
2023/12/13 09:12:07;;;;;;;3.10;0.70;;;10.70;35.20;;;;;;5043640;28;21019;-67
2023/12/13 09:14:36;;;;;;;3.77;1.23;;;10.60;35.00;;;;;;5047364;28;20533;-67
2023/12/13 09:17:03;;;;;;;4.03;1.10;;;10.60;35.40;;;;;;5046216;28;20468;-67
2023/12/13 09:19:30;;;;;;;4.30;1.07;;;10.60;35.00;;;;;;5045252;28;20469;-67
2023/12/13 09:21:57;;;;;;;5.13;1.00;;;10.60;35.00;;;;;;5047351;28;21069;-67
2023/12/13 09:24:23;;;;;;;4.27;1.17;;;10.60;34.90;;;;;;5045684;28;20462;-66
2023/12/13 09:26:50;;;;;;;5.50;1.70;;;10.50;35.10;;;;;;5046325;28;20553;-67
2023/12/13 09:29:17;;;;;;;3.93;1.30;;;10.50;35.20;;;;;;5045299;28;20484;-67
2023/12/13 09:31:45;;;;;;;5.83;1.10;;;10.50;35.30;;;;;;5039070;28;21069;-67
2023/12/13 09:34:12;;;;;;;5.03;1.03;;;10.50;35.10;;;;;;5045710;28;20469;-67
2023/12/13 09:36:40;;;;;;;3.63;1.00;;;10.40;35.10;;;;;;5047309;28;20457;-67
2023/12/13 09:39:07;;;;;;;3.73;1.20;;;10.40;35.30;;;;;;5045175;28;20535;-67
2023/12/13 09:41:42;;;;;;;4.10;1.40;;;10.40;35.40;;;;;;5041790;28;20489;-67
2023/12/13 09:44:10;;;;;;;3.60;1.10;;;10.40;35.70;;;;;;5049061;28;20461;-67
2023/12/13 09:46:40;;;;;;;3.27;0.83;;;10.40;35.70;;;;;;5049134;28;21132;-67
2023/12/13 09:49:09;;;;;;;4.00;1.30;;;10.30;35.80;;;;;;5047939;28;20442;-67
2023/12/13 09:51:37;;;;;;;4.73;1.37;;;10.40;35.80;;;;;;5049751;28;20560;-66
2023/12/13 09:54:05;;;;;;;4.60;1.03;;;10.40;35.90;;;;;;5046748;28;20461;-68
2023/12/13 09:56:32;;;;;;;3.87;1.03;;;10.40;35.90;;;;;;5051754;28;20458;-67
2023/12/13 09:58:59;;;;;;;3.70;1.10;;;10.40;35.90;;;;;;5048428;28;20937;-67
2023/12/13 10:01:26;;;;;;;4.60;1.20;;;10.40;36.00;;;;;;5048625;28;20472;-68
2023/12/13 10:03:53;;;;;;;4.30;1.13;;;10.40;35.80;;;;;;5049433;28;20460;-67
2023/12/13 10:06:21;;;;;;;4.60;1.50;;;10.40;35.80;;;;;;5044695;28;20956;-67
2023/12/13 10:08:54;;;;;;;3.20;0.90;;;10.40;35.80;;;;;;5050954;28;20462;-67
2023/12/13 10:11:21;;;;;;;4.80;1.80;;;10.40;35.80;;;;;;5048281;28;20454;-67
2023/12/13 10:13:48;;;;;;;5.87;1.40;;;10.40;35.80;;;;;;5048393;28;20466;-67
2023/12/13 10:16:16;;;;;;;3.40;1.10;;;10.40;35.70;;;;;;5049191;28;20545;-67
2023/12/13 10:18:43;;;;;;;4.33;1.17;;;10.40;35.80;;;;;;5050473;28;20559;-66
2023/12/13 10:21:10;;;;;;;3.70;1.20;;;10.40;35.80;;;;;;5050519;28;20572;-67
2023/12/13 10:23:40;;;;;;;5.00;1.50;;;10.40;36.20;;;;;;5056271;23;20498;-65
2023/12/13 10:26:09;;;;;;;3.93;1.37;;;10.60;35.90;;;;;;5049623;28;20454;-65
2023/12/13 10:28:36;;;;;;;5.70;1.40;;;10.40;35.90;;;;;;5048600;28;20458;-65
2023/12/13 10:31:03;;;;;;;5.30;1.50;;;10.40;36.10;;;;;;5045292;28;20465;-66
2023/12/13 10:33:30;;;;;;;6.13;2.10;;;10.40;36.10;;;;;;5048533;28;20477;-65
2023/12/13 10:35:59;;;;;;;6.37;2.00;;;10.50;36.10;;;;;;5049675;28;20466;-66
2023/12/13 10:38:27;;;;;;;6.33;2.13;;;10.50;36.10;;;;;;5047222;28;20462;-65
2023/12/13 10:40:55;;;;;;;4.40;1.90;;;10.60;36.10;;;;;;5049356;28;20500;-65
2023/12/13 10:43:24;;;;;;;4.03;1.50;;;10.60;36.10;;;;;;5046487;28;20999;-65
2023/12/13 10:45:59;;;;;;;5.93;1.63;;;10.60;36.10;;;;;;5046907;28;20545;-66
2023/12/13 10:48:37;;;;;;;4.53;1.70;;;10.60;36.10;;;;;;5049179;28;20468;-65
2023/12/13 10:51:04;;;;;;;5.33;1.60;;;10.60;36.20;;;;;;5046722;28;20450;-65
2023/12/13 10:53:33;;;;;;;5.60;2.00;;;10.60;36.10;;;;;;5052672;28;21045;-65
2023/12/13 10:56:02;;;;;;;4.47;1.80;;;10.60;36.20;;;;;;5049947;28;20468;-66
2023/12/13 10:58:29;;;;;;;5.20;1.70;;;10.70;36.80;;;;;;5047056;28;20461;-65
2023/12/13 11:00:57;;;;;;;5.33;2.30;;;10.70;36.00;;;;;;5047614;28;20822;-65
2023/12/13 11:03:33;;;;;;;4.50;2.30;;;10.80;35.90;;;;;;5049328;28;20484;-65
2023/12/13 11:06:04;;;;;;;4.87;2.40;;;10.80;35.80;;;;;;5048889;28;20464;-65
2023/12/13 11:08:38;;;;;;;5.40;3.10;;;10.90;35.50;;;;;;5047084;28;20454;-65
2023/12/13 11:11:08;;;;;;;3.97;1.40;;;11.00;35.50;;;;;;5045253;28;20992;-65
2023/12/13 11:13:46;;;;;;;9.10;6.30;;;11.00;35.20;;;;;;5046297;28;20919;-66
2023/12/13 11:16:17;;;;;;;9.47;6.97;;;11.00;35.00;;;;;;5049103;28;20465;-65
2023/12/13 11:18:45;;;;;;;11.03;7.20;;;11.00;35.10;;;;;;5047283;28;20458;-65
2023/12/13 11:21:13;;;;;;;12.17;8.50;;;11.10;34.90;;;;;;5048331;28;20884;-65
2023/12/13 11:23:41;;;;;;;12.87;9.70;;;11.20;34.90;;;;;;5048641;28;20969;-65
2023/12/13 11:26:16;;;;;;;6.83;3.60;;;11.20;34.80;;;;;;5047921;28;20453;-65
2023/12/13 11:28:50;;;;;;;4.37;2.00;;;11.30;34.70;;;;;;5044748;28;20460;-65
2023/12/13 11:31:20;;;;;;;5.20;2.20;;;11.40;34.50;;;;;;5047400;28;20466;-65
2023/12/13 11:33:49;;;;;;;7.03;4.10;;;11.30;34.30;;;;;;5047511;28;20457;-65
2023/12/13 11:36:19;;;;;;;5.37;2.47;;;11.40;34.40;;;;;;5046881;28;20470;-65
2023/12/13 11:38:46;;;;;;;5.50;2.27;;;11.30;34.50;;;;;;5048716;28;20454;-65
2023/12/13 11:41:13;;;;;;;5.00;1.87;;;11.30;34.40;;;;;;5043235;28;20513;-65
2023/12/13 11:43:41;;;;;;;4.27;1.70;;;11.30;34.30;;;;;;5048393;28;20450;-65
2023/12/13 11:46:09;;;;;;;3.70;1.30;;;11.30;34.10;;;;;;5046493;28;20450;-65
2023/12/13 11:48:36;;;;;;;4.10;1.37;;;11.40;33.80;;;;;;5048468;28;20798;-65
2023/12/13 11:51:03;;;;;;;4.20;1.40;;;11.40;33.60;;;;;;5047903;28;21002;-66
2023/12/13 11:53:30;;;;;;;4.00;1.30;;;11.40;33.60;;;;;;5046828;28;20461;-65
2023/12/13 11:55:58;;;;;;;4.03;1.40;;;11.40;33.50;;;;;;5043081;28;20458;-65
2023/12/13 11:58:28;;;;;;;4.60;1.20;;;11.40;33.30;;;;;;5042920;28;20492;-65
2023/12/13 12:00:58;;;;;;;4.37;1.37;;;11.40;33.20;;;;;;5050245;28;20525;-66
2023/12/13 12:03:25;;;;;;;3.83;1.53;;;11.40;32.90;;;;;;5048018;28;20892;-66
2023/12/13 12:05:52;;;;;;;4.03;1.57;;;11.40;32.50;;;;;;5048751;28;20967;-66
2023/12/13 12:08:24;;;;;;;3.20;0.80;;;11.40;32.20;;;;;;5047681;28;20950;-66
2023/12/13 12:10:51;;;;;;;5.70;1.50;;;11.40;32.20;;;;;;5048056;28;20456;-66
2023/12/13 12:13:19;;;;;;;3.60;1.40;;;11.50;32.10;;;;;;5044534;28;20489;-66
2023/12/13 12:15:46;;;;;;;3.47;1.33;;;11.40;31.90;;;;;;5049235;28;20831;-66
2023/12/13 12:18:14;;;;;;;3.70;1.00;;;11.40;31.90;;;;;;5047809;28;20812;-66
2023/12/13 12:20:41;;;;;;;3.87;1.20;;;11.30;31.80;;;;;;5047470;28;20484;-66
2023/12/13 12:23:09;;;;;;;4.13;1.10;;;11.30;31.90;;;;;;5042749;28;20493;-66
2023/12/13 12:25:36;;;;;;;3.83;1.00;;;11.30;31.50;;;;;;5048846;28;20462;-66
2023/12/13 12:28:08;;;;;;;3.80;0.90;;;11.30;31.40;;;;;;5044670;28;20497;-66
2023/12/13 12:30:35;;;;;;;3.47;1.33;;;11.40;31.30;;;;;;5046278;28;20461;-66
2023/12/13 12:33:02;;;;;;;4.73;1.80;;;11.40;31.10;;;;;;5045666;28;21181;-66
2023/12/13 12:35:30;;;;;;;4.67;1.80;;;11.60;31.00;;;;;;5055108;28;20454;-66
2023/12/13 12:37:57;;;;;;;3.90;1.60;;;11.60;30.90;;;;;;5056581;28;20888;-66
2023/12/13 12:40:24;;;;;;;3.80;1.40;;;11.40;30.60;;;;;;5046023;28;20470;-65
2023/12/13 12:42:50;;;;;;;3.80;1.50;;;11.50;30.60;;;;;;5045672;28;20481;-66
2023/12/13 12:45:18;;;;;;;3.40;1.30;;;11.40;30.50;;;;;;5048344;28;20549;-65
2023/12/13 12:47:44;;;;;;;4.57;2.10;;;11.40;30.10;;;;;;5049256;28;20458;-65
2023/12/13 12:50:11;;;;;;;4.60;1.67;;;11.30;30.70;;;;;;5047340;28;20834;-65
2023/12/13 12:52:41;;;;;;;9.80;7.43;;;11.30;30.30;;;;;;5048271;28;20473;-65
2023/12/13 12:55:09;;;;;;;5.20;3.00;;;11.30;30.40;;;;;;5045867;28;20461;-65